Time;durP1;ratioP1;P1;durP2;ratioP2;P2;SDS_P1;SDS_P2;PMS_P1;PMS_P2;Temp;Humidity;BMP_temperature;BMP_pressure;BME280_temperature;BME280_humidity;BME280_pressure;Samples;Min_cycle;Max_cycle;Signal;HPM_P1;HPM_P2
2023/10/09 00:40:30;;;;;;;2.80;1.20;;;;;;;;;;4983533;28;20084;-83
2023/10/09 00:42:55;;;;;;;4.57;1.45;;;;;;;;;;4975249;28;20057;-83
2023/10/09 00:45:32;;;;;;;4.25;1.38;;;;;;;;;;4996612;28;20037;-83
2023/10/09 00:47:59;;;;;;;6.55;1.35;;;;;;;;;;4978960;28;20532;-82
2023/10/09 00:51:00;;;;;;;3.50;1.27;;;;;;;;;;4956966;28;20124;-84
2023/10/09 00:54:26;;;;;;;4.18;1.45;;;;;;;;;;4952980;28;20042;-83
2023/10/09 00:57:07;;;;;;;3.22;1.30;;;;;;;;;;4979607;28;20132;-82
2023/10/09 01:00:26;;;;;;;4.25;1.02;;;;;;;;;;4991033;28;20041;-83
2023/10/09 01:03:40;;;;;;;4.00;1.40;;;;;;;;;;4878136;28;20136;-83
2023/10/09 01:10:18;;;;;;;2.88;1.30;;;;;;;;;;4923707;28;20569;-83
2023/10/09 01:12:53;;;;;;;9.52;1.60;;;;;;;;;;4973904;28;20037;-83
2023/10/09 01:15:43;;;;;;;3.92;1.38;;;;;;;;;;4975776;28;20029;-82
2023/10/09 01:18:10;;;;;;;3.83;1.20;;;;;;;;;;4980929;28;20090;-84
2023/10/09 01:20:41;;;;;;;4.00;1.33;;;;;;;;;;4999735;28;20120;-83
2023/10/09 01:23:15;;;;;;;3.60;1.00;;;;;;;;;;4972780;28;20050;-84
2023/10/09 01:25:45;;;;;;;3.42;1.20;;;;;;;;;;4979135;28;20041;-83
2023/10/09 01:28:15;;;;;;;;;;;;;;;;;;4996294;28;20052;-82
2023/10/09 01:32:09;;;;;;;3.40;1.02;;;;;;;;;;4998925;28;19921;-83
2023/10/09 01:34:42;;;;;;;3.08;1.02;;;;;;;;;;4888982;28;20658;-83
2023/10/09 01:37:46;;;;;;;3.58;1.00;;;;;;;;;;4891764;28;20509;-83
2023/10/09 01:40:35;;;;;;;4.18;1.02;;;;;;;;;;4968735;28;20535;-83
2023/10/09 01:43:03;;;;;;;4.53;1.00;;;;;;;;;;4960312;28;20054;-83
2023/10/09 01:45:41;;;;;;;4.47;1.00;;;;;;;;;;4971368;28;20542;-83
2023/10/09 01:48:09;;;;;;;3.20;1.33;;;;;;;;;;4986128;28;20069;-84
2023/10/09 01:50:41;;;;;;;3.95;1.20;;;;;;;;;;5010585;28;20037;-83
2023/10/09 01:53:17;;;;;;;3.20;1.30;;;;;;;;;;5002235;28;20042;-83
2023/10/09 01:55:45;;;;;;;3.08;1.17;;;;;;;;;;4991134;28;20136;-83
2023/10/09 02:00:54;;;;;;;3.05;1.08;;;;;;;;;;5003328;28;20145;-85
2023/10/09 02:03:26;;;;;;;6.18;1.23;;;;;;;;;;4989884;28;20046;-83
2023/10/09 02:06:44;;;;;;;3.00;1.10;;;;;;;;;;4953398;28;20050;-84
2023/10/09 02:08:53;;;;;;;3.00;1.10;;;;;;;;;;4976715;28;20030;-82
2023/10/09 02:11:41;;;;;;;4.47;1.17;;;;;;;;;;5001372;28;20137;-86
2023/10/09 02:14:15;;;;;;;3.63;1.52;;;;;;;;;;5004961;28;20037;-82
2023/10/09 02:16:41;;;;;;;2.35;1.10;;;;;;;;;;5014997;28;20128;-83
2023/10/09 02:19:08;;;;;;;4.78;1.40;;;;;;;;;;5017442;28;20383;-84
2023/10/09 02:21:33;;;;;;;4.47;1.30;;;;;;;;;;5018072;28;20050;-84
2023/10/09 02:24:07;;;;;;;2.92;1.10;;;;;;;;;;5007550;28;20052;-84
2023/10/09 02:29:23;;;;;;;3.65;1.00;;;;;;;;;;4959548;28;20037;-84
2023/10/09 02:31:54;;;;;;;4.18;1.13;;;;;;;;;;4992457;28;20452;-83
2023/10/09 02:34:38;;;;;;;3.13;1.00;;;;;;;;;;5009794;28;20038;-85
2023/10/09 02:37:12;;;;;;;5.30;1.00;;;;;;;;;;5012415;28;20030;-84
2023/10/09 02:39:48;;;;;;;3.30;0.88;;;;;;;;;;4996897;28;20038;-84
2023/10/09 02:44:50;;;;;;;3.47;0.93;;;;;;;;;;5004296;28;20525;-84
2023/10/09 02:47:30;;;;;;;5.93;1.00;;;;;;;;;;5011882;28;20053;-84
2023/10/09 02:50:07;;;;;;;4.32;1.15;;;;;;;;;;5008005;28;20042;-83
2023/10/09 02:52:40;;;;;;;3.28;1.10;;;;;;;;;;4982717;28;20030;-83
2023/10/09 02:55:53;;;;;;;3.08;1.08;;;;;;;;;;4964925;28;20601;-83
2023/10/09 02:58:31;;;;;;;2.40;0.65;;;;;;;;;;4949780;28;20034;-86
2023/10/09 03:00:59;;;;;;;2.90;0.90;;;;;;;;;;5001985;28;20042;-83
2023/10/09 03:03:26;;;;;;;2.53;1.00;;;;;;;;;;4975253;28;20262;-84
2023/10/09 03:05:52;;;;;;;2.97;1.00;;;;;;;;;;5002256;28;20034;-83
2023/10/09 03:08:20;;;;;;;2.75;0.93;;;;;;;;;;5007698;28;20026;-85
2023/10/09 03:10:47;;;;;;;4.13;1.15;;;;;;;;;;5010516;28;20084;-84
2023/10/09 03:13:19;;;;;;;5.68;1.08;;;;;;;;;;5000653;28;20048;-83
2023/10/09 03:15:51;;;;;;;2.53;0.93;;;;;;;;;;4972788;28;20037;-84
2023/10/09 03:18:59;;;;;;;3.35;1.00;;;;;;;;;;4954353;28;20224;-83
2023/10/09 03:22:19;;;;;;;3.40;1.00;;;;;;;;;;4949727;28;20134;-81
2023/10/09 03:25:35;;;;;;;2.80;0.80;;;;;;;;;;4943917;28;20087;-83
2023/10/09 03:28:53;;;;;;;3.10;0.90;;;;;;;;;;4964695;28;20685;-83
2023/10/09 03:32:06;;;;;;;3.80;1.13;;;;;;;;;;4947779;28;20119;-83
2023/10/09 03:38:44;;;;;;;2.72;0.80;;;;;;;;;;4923380;28;20034;-84
2023/10/09 03:42:19;;;;;;;2.13;0.70;;;;;;;;;;4932147;28;20034;-84
2023/10/09 03:48:56;;;;;;;3.92;0.63;;;;;;;;;;4977818;28;20033;-84
2023/10/09 03:52:02;;;;;;;2.58;0.82;;;;;;;;;;4891573;28;20065;-84
2023/10/09 03:55:35;;;;;;;3.15;0.85;;;;;;;;;;4946090;28;20041;-84
2023/10/09 04:02:11;;;;;;;2.45;0.88;;;;;;;;;;4924192;28;20617;-84
2023/10/09 04:08:51;;;;;;;2.78;0.52;;;;;;;;;;4942012;28;20564;-83
2023/10/09 04:18:18;;;;;;;3.22;0.65;;;;;;;;;;4926075;28;20673;-84
2023/10/09 04:21:33;;;;;;;1.42;0.50;;;;;;;;;;4947863;28;20033;-84
2023/10/09 04:46:13;;;;;;;0.95;0.60;;;;;;;;;;4959394;28;21664;-85
2023/10/09 05:03:43;;;;;;;2.95;0.85;;;;;;;;;;4947491;28;20139;-83
2023/10/09 05:06:57;;;;;;;1.70;0.50;;;;;;;;;;4935414;28;20134;-85
2023/10/09 05:13:14;;;;;;;1.70;0.63;;;;;;;;;;4924577;28;20301;-84
2023/10/09 05:15:46;;;;;;;3.30;0.70;;;;;;;;;;4953862;28;20102;-83
2023/10/09 05:18:16;;;;;;;2.90;0.73;;;;;;;;;;4947157;28;20034;-88
2023/10/09 05:30:49;;;;;;;3.45;0.77;;;;;;;;;;4942471;28;20039;-84
2023/10/09 05:33:33;;;;;;;4.78;0.82;;;;;;;;;;4942242;28;20044;-85
2023/10/09 05:44:55;;;;;;;2.03;0.68;;;;;;;;;;4918985;28;20214;-84
2023/10/09 05:48:54;;;;;;;2.88;0.90;;;;;;;;;;4976318;28;20370;-85
2023/10/09 05:52:32;;;;;;;5.30;0.77;;;;;;;;;;4932020;28;20049;-83
2023/10/09 06:16:43;;;;;;;3.63;1.00;;;;;;;;;;4956396;28;20111;-72
2023/10/09 06:19:12;;;;;;;4.80;0.80;;;;;;;;;;4966136;28;20408;-74
2023/10/09 06:24:18;;;;;;;3.55;0.90;;;;;;;;;;4961346;28;20470;-74
2023/10/09 06:32:34;;;;;;;4.70;0.90;;;;;;;;;;4939732;28;20030;-74
2023/10/09 06:43:08;;;;;;;4.25;0.90;;;;;;;;;;4980049;28;20054;-71
2023/10/09 06:45:43;;;;;;;6.65;0.85;;;;;;;;;;4978083;28;20026;-74
2023/10/09 06:48:40;;;;;;;2.85;0.80;;;;;;;;;;4983032;28;20038;-75
2023/10/09 06:51:03;;;;;;;3.63;0.95;;;;;;;;;;4982031;28;20327;-75
2023/10/09 06:53:58;;;;;;;3.30;0.60;;;;;;;;;;4981398;28;20101;-75
2023/10/09 06:58:58;;;;;;;3.53;0.90;;;;;;;;;;4959226;28;20450;-75
2023/10/09 07:04:19;;;;;;;4.40;0.95;;;;;;;;;;4962270;28;20053;-83
2023/10/09 07:14:07;;;;;;;4.25;1.10;;;;;;;;;;4958116;28;20685;-83
2023/10/09 07:16:39;;;;;;;2.38;0.90;;;;;;;;;;4968291;28;20042;-83
2023/10/09 07:19:25;;;;;;;2.70;0.65;;;;;;;;;;4971653;28;20047;-85
2023/10/09 07:21:54;;;;;;;3.45;0.77;;;;;;;;;;4953589;28;20105;-84
2023/10/09 07:24:24;;;;;;;5.25;0.93;;;;;;;;;;4981057;28;20046;-85
2023/10/09 07:26:53;;;;;;;3.22;0.82;;;;;;;;;;4975180;28;20058;-84
2023/10/09 07:29:21;;;;;;;2.88;1.00;;;;;;;;;;4981971;28;20034;-84
2023/10/09 07:31:57;;;;;;;2.20;0.80;;;;;;;;;;4977820;28;20046;-84
2023/10/09 07:34:31;;;;;;;2.97;0.70;;;;;;;;;;4978219;28;20144;-83
2023/10/09 07:36:57;;;;;;;3.42;1.00;;;;;;;;;;4965689;28;20041;-84
2023/10/09 07:39:22;;;;;;;2.27;0.90;;;;;;;;;;4977404;28;20026;-84
2023/10/09 07:42:01;;;;;;;2.72;0.80;;;;;;;;;;4966550;28;20285;-84
2023/10/09 07:44:39;;;;;;;2.45;0.93;;;;;;;;;;4926600;28;20043;-85
2023/10/09 07:49:58;;;;;;;1.70;0.70;;;;;;;;;;4961788;28;20105;-84
2023/10/09 07:52:26;;;;;;;4.35;1.00;;;;;;;;;;4954776;28;20050;-84
2023/10/09 07:54:52;;;;;;;2.75;0.80;;;;;;;;;;4953090;28;20691;-84
2023/10/09 07:57:25;;;;;;;1.52;0.60;;;;;;;;;;4960153;28;20212;-84
2023/10/09 08:00:01;;;;;;;3.35;0.70;;;;;;;;;;4959359;28;20030;-84
2023/10/09 08:02:32;;;;;;;2.13;0.80;;;;;;;;;;4971491;28;20086;-84
2023/10/09 08:05:04;;;;;;;1.52;0.80;;;;;;;;;;4971486;28;20042;-84
2023/10/09 08:07:36;;;;;;;3.53;1.00;;;;;;;;;;4974878;28;20105;-86
2023/10/09 08:15:20;;;;;;;3.80;0.70;;;;;;;;;;4981700;28;20145;-75
2023/10/09 08:17:56;;;;;;;1.45;0.70;;;;;;;;;;4949965;28;20582;-75
2023/10/09 08:20:25;;;;;;;1.75;0.80;;;;;;;;;;4951263;28;20058;-76
2023/10/09 08:22:52;;;;;;;2.92;0.90;;;;;;;;;;4968950;28;20122;-75
2023/10/09 08:25:26;;;;;;;1.40;0.50;;;;;;;;;;4988067;28;20048;-78
2023/10/09 08:27:55;;;;;;;2.40;0.85;;;;;;;;;;4981847;28;20045;-76
2023/10/09 08:30:28;;;;;;;3.22;0.98;;;;;;;;;;4972962;28;20225;-76
2023/10/09 08:33:02;;;;;;;2.67;0.90;;;;;;;;;;4945113;28;20634;-84
2023/10/09 08:35:35;;;;;;;2.58;0.90;;;;;;;;;;4980332;28;20178;-85
2023/10/09 08:38:07;;;;;;;3.10;0.88;;;;;;;;;;4962372;28;20125;-85
2023/10/09 08:40:37;;;;;;;2.55;0.68;;;;;;;;;;4946542;28;20024;-84
2023/10/09 08:43:22;;;;;;;2.22;0.88;;;;;;;;;;4944002;28;20121;-84
2023/10/09 08:46:00;;;;;;;2.80;0.70;;;;;;;;;;4982633;28;20046;-84
2023/10/09 08:48:27;;;;;;;1.38;0.60;;;;;;;;;;4971199;28;20049;-85
2023/10/09 08:50:55;;;;;;;1.65;0.68;;;;;;;;;;4951710;28;20069;-86
2023/10/09 08:53:21;;;;;;;3.40;0.85;;;;;;;;;;4976869;28;20034;-85
2023/10/09 08:55:46;;;;;;;2.78;0.80;;;;;;;;;;4998188;28;20046;-85
2023/10/09 08:58:24;;;;;;;3.27;0.83;;;;;;;;;;4962057;28;20726;-85
2023/10/09 09:00:50;;;;;;;2.42;1.10;;;;;;;;;;4953097;28;20293;-85
2023/10/09 09:03:18;;;;;;;2.22;0.73;;;;;;;;;;4963562;28;20038;-83
2023/10/09 09:05:51;;;;;;;2.05;0.57;;;;;;;;;;4981563;28;20117;-81
2023/10/09 09:08:28;;;;;;;2.20;0.68;;;;;;;;;;4976507;28;20034;-77
2023/10/09 09:11:11;;;;;;;2.03;0.80;;;;;;;;;;4974732;28;20034;-78
2023/10/09 09:13:36;;;;;;;1.30;0.63;;;;;;;;;;4974476;28;21559;-78
2023/10/09 09:16:02;;;;;;;2.92;0.63;;;;;;;;;;4973794;28;20027;-79
2023/10/09 09:18:31;;;;;;;1.55;0.68;;;;;;;;;;4940853;28;20118;-86
2023/10/09 09:20:57;;;;;;;1.80;0.65;;;;;;;;;;4937869;28;20032;-85
2023/10/09 09:23:23;;;;;;;1.92;0.93;;;;;;;;;;4956408;28;20110;-84
2023/10/09 09:25:58;;;;;;;2.33;0.70;;;;;;;;;;4960586;28;20035;-85
2023/10/09 09:28:26;;;;;;;1.77;0.68;;;;;;;;;;4972023;28;20046;-81
2023/10/09 09:30:51;;;;;;;1.65;0.63;;;;;;;;;;4974023;28;20274;-83
2023/10/09 09:33:20;;;;;;;1.45;0.68;;;;;;;;;;4972382;28;20044;-82
2023/10/09 09:35:55;;;;;;;1.20;0.47;;;;;;;;;;4975146;28;20045;-85
2023/10/09 09:38:23;;;;;;;1.42;0.80;;;;;;;;;;4975361;28;20034;-86
2023/10/09 09:40:53;;;;;;;1.60;0.80;;;;;;;;;;4977242;28;20046;-85
2023/10/09 09:43:22;;;;;;;2.17;0.65;;;;;;;;;;4959497;28;20062;-90
2023/10/09 09:45:49;;;;;;;2.60;0.73;;;;;;;;;;4975446;28;20033;-87
2023/10/09 09:48:16;;;;;;;2.03;0.52;;;;;;;;;;4974508;28;20029;-87
2023/10/09 09:50:44;;;;;;;1.02;0.50;;;;;;;;;;4959291;28;20113;-81
2023/10/09 09:53:11;;;;;;;1.75;0.80;;;;;;;;;;4974029;28;20347;-86
2023/10/09 09:55:41;;;;;;;2.25;1.00;;;;;;;;;;4955930;28;20026;-83
2023/10/09 09:58:08;;;;;;;1.60;0.68;;;;;;;;;;4970415;28;20796;-80
2023/10/09 10:00:42;;;;;;;2.63;0.70;;;;;;;;;;4955608;28;20102;-82
2023/10/09 10:03:18;;;;;;;1.70;0.70;;;;;;;;;;4952624;28;20105;-79
2023/10/09 10:05:46;;;;;;;1.80;0.60;;;;;;;;;;4953227;28;20058;-81
2023/10/09 10:08:13;;;;;;;1.58;0.52;;;;;;;;;;4955138;28;20035;-84
2023/10/09 10:10:47;;;;;;;1.55;0.57;;;;;;;;;;4937923;28;20041;-84
2023/10/09 10:13:21;;;;;;;1.27;0.52;;;;;;;;;;4954598;28;20035;-85
2023/10/09 10:16:00;;;;;;;1.58;0.75;;;;;;;;;;4953912;28;20279;-86
2023/10/09 10:18:29;;;;;;;2.83;0.80;;;;;;;;;;4952271;28;20054;-79
2023/10/09 10:21:14;;;;;;;2.67;0.70;;;;;;;;;;4952600;28;20498;-82
2023/10/09 10:23:40;;;;;;;1.42;0.77;;;;;;;;;;4953135;28;20147;-80
2023/10/09 10:26:25;;;;;;;1.20;0.60;;;;;;;;;;4935275;28;20027;-79
2023/10/09 10:29:09;;;;;;;2.08;0.60;;;;;;;;;;4952923;28;20039;-79
2023/10/09 10:31:54;;;;;;;1.63;0.77;;;;;;;;;;4971868;28;20054;-79
2023/10/09 10:34:23;;;;;;;1.27;0.60;;;;;;;;;;4971319;28;20030;-79
2023/10/09 10:36:52;;;;;;;1.85;0.90;;;;;;;;;;4969969;28;20038;-77
2023/10/09 10:39:21;;;;;;;2.03;0.77;;;;;;;;;;4971201;28;21639;-78
2023/10/09 10:41:57;;;;;;;3.33;0.82;;;;;;;;;;4971263;28;20160;-75
2023/10/09 10:44:38;;;;;;;1.77;0.70;;;;;;;;;;4981923;28;20698;-74
2023/10/09 10:47:04;;;;;;;1.23;0.52;;;;;;;;;;5002904;28;20107;-74
2023/10/09 10:49:40;;;;;;;2.58;0.75;;;;;;;;;;4979246;28;20043;-75
2023/10/09 10:52:16;;;;;;;1.95;0.80;;;;;;;;;;4981845;28;20034;-75
2023/10/09 10:57:28;;;;;;;1.20;0.60;;;;;;;;;;4979502;28;20172;-74
2023/10/09 11:00:13;;;;;;;1.48;0.63;;;;;;;;;;4979157;28;20298;-85
2023/10/09 11:02:48;;;;;;;1.55;0.60;;;;;;;;;;4958061;28;20115;-86
2023/10/09 11:05:23;;;;;;;2.17;0.65;;;;;;;;;;4977626;28;20121;-87
2023/10/09 11:07:52;;;;;;;1.60;0.63;;;;;;;;;;4948258;28;20117;-85
2023/10/09 11:10:27;;;;;;;2.00;0.80;;;;;;;;;;4966594;28;20117;-85
2023/10/09 11:15:44;;;;;;;3.27;0.90;;;;;;;;;;4981489;28;20023;-85
2023/10/09 11:18:19;;;;;;;3.15;0.70;;;;;;;;;;4979770;28;20745;-84
2023/10/09 11:28:49;;;;;;;1.60;0.73;;;;;;;;;;4970317;28;20043;-85
2023/10/09 11:31:17;;;;;;;1.58;0.70;;;;;;;;;;4963417;28;20054;-85
2023/10/09 11:33:51;;;;;;;2.42;1.10;;;;;;;;;;4962109;28;20051;-85
2023/10/09 11:36:16;;;;;;;1.45;0.88;;;;;;;;;;4949788;28;20042;-87
2023/10/09 11:38:49;;;;;;;1.77;0.98;;;;;;;;;;4933351;28;20501;-87
2023/10/09 11:41:24;;;;;;;2.13;1.30;;;;;;;;;;4976974;28;20030;-89
2023/10/09 11:43:53;;;;;;;2.65;1.00;;;;;;;;;;4957474;28;20557;-85
2023/10/09 11:49:32;;;;;;;2.85;1.30;;;;;;;;;;4921916;29;20629;-88
2023/10/09 11:54:39;;;;;;;3.22;1.58;;;;;;;;;;4943623;28;20113;-86
2023/10/09 11:57:04;;;;;;;3.10;1.40;;;;;;;;;;4971355;28;20470;-87
2023/10/09 11:59:38;;;;;;;3.53;1.38;;;;;;;;;;4962846;28;20372;-87
2023/10/09 12:02:04;;;;;;;2.80;1.45;;;;;;;;;;4975364;28;20034;-89
2023/10/09 12:04:32;;;;;;;2.47;1.30;;;;;;;;;;4974043;28;20054;-85
2023/10/09 12:07:06;;;;;;;3.10;1.63;;;;;;;;;;4947421;28;20173;-86
2023/10/09 12:09:34;;;;;;;2.90;1.40;;;;;;;;;;4977218;28;20034;-86
2023/10/09 12:12:00;;;;;;;3.15;1.55;;;;;;;;;;4973216;28;20039;-86
2023/10/09 12:14:26;;;;;;;2.78;1.25;;;;;;;;;;4975781;28;20183;-85
2023/10/09 12:16:52;;;;;;;3.40;1.55;;;;;;;;;;4984014;28;20069;-85
2023/10/09 12:19:18;;;;;;;3.25;1.30;;;;;;;;;;4981400;28;20046;-87
2023/10/09 12:21:43;;;;;;;2.45;1.42;;;;;;;;;;4985212;28;20046;-86
2023/10/09 12:24:12;;;;;;;3.17;1.40;;;;;;;;;;4980901;28;20049;-73
2023/10/09 12:26:39;;;;;;;1.90;1.25;;;;;;;;;;4985742;28;20130;-72
2023/10/09 12:29:10;;;;;;;2.95;1.15;;;;;;;;;;4985791;28;20046;-72
2023/10/09 12:31:35;;;;;;;2.88;1.13;;;;;;;;;;4965707;28;20061;-73
2023/10/09 12:34:01;;;;;;;2.63;1.13;;;;;;;;;;4980711;28;20366;-79
2023/10/09 12:36:26;;;;;;;3.30;1.05;;;;;;;;;;4988209;28;20320;-79
2023/10/09 12:38:58;;;;;;;3.65;1.23;;;;;;;;;;4986624;28;20065;-78
2023/10/09 12:41:27;;;;;;;2.03;0.93;;;;;;;;;;4978770;28;20120;-78
2023/10/09 12:43:53;;;;;;;1.85;0.90;;;;;;;;;;4982858;28;20053;-79
2023/10/09 12:46:22;;;;;;;1.83;0.80;;;;;;;;;;4985947;28;20035;-78
2023/10/09 12:48:48;;;;;;;3.35;1.33;;;;;;;;;;4983672;28;20038;-79
2023/10/09 12:51:16;;;;;;;2.75;1.20;;;;;;;;;;4980286;28;20030;-78
2023/10/09 12:53:45;;;;;;;2.88;0.98;;;;;;;;;;4976791;28;20034;-77
2023/10/09 12:56:12;;;;;;;1.90;0.77;;;;;;;;;;4965657;28;20046;-77
2023/10/09 12:58:37;;;;;;;1.60;0.70;;;;;;;;;;4978633;28;20297;-77
2023/10/09 13:01:09;;;;;;;1.85;0.90;;;;;;;;;;4976129;28;20039;-77
2023/10/09 13:03:38;;;;;;;1.85;0.50;;;;;;;;;;4978228;28;20167;-78
2023/10/09 13:06:07;;;;;;;2.72;0.85;;;;;;;;;;4985922;28;20034;-79
2023/10/09 13:08:35;;;;;;;2.37;0.70;;;;;;;;;;4946603;28;20067;-78
2023/10/09 13:11:16;;;;;;;1.90;0.77;;;;;;;;;;4957786;28;20133;-79
2023/10/09 13:13:43;;;;;;;1.92;0.70;;;;;;;;;;4967369;28;20050;-78
2023/10/09 13:16:13;;;;;;;1.20;0.60;;;;;;;;;;4966735;28;20131;-78
2023/10/09 13:18:39;;;;;;;1.58;0.60;;;;;;;;;;4979744;28;20161;-78
2023/10/09 13:21:04;;;;;;;1.30;0.70;;;;;;;;;;4939004;28;20361;-79
2023/10/09 13:23:38;;;;;;;2.13;0.57;;;;;;;;;;4962074;28;20100;-76
2023/10/09 13:26:08;;;;;;;2.00;0.80;;;;;;;;;;4969968;28;20049;-76
2023/10/09 13:28:37;;;;;;;2.13;0.70;;;;;;;;;;4981668;28;20126;-76
2023/10/09 13:31:04;;;;;;;2.00;0.77;;;;;;;;;;4966272;28;20050;-76
2023/10/09 13:33:36;;;;;;;1.50;0.63;;;;;;;;;;4969396;28;20034;-76
2023/10/09 13:36:02;;;;;;;2.25;0.57;;;;;;;;;;4973021;28;20035;-76
2023/10/09 13:38:27;;;;;;;1.90;0.70;;;;;;;;;;4961711;28;20123;-76
2023/10/09 13:41:01;;;;;;;1.40;0.50;;;;;;;;;;4968167;28;20097;-77
2023/10/09 13:43:28;;;;;;;3.00;0.90;;;;;;;;;;4951877;28;20311;-77
2023/10/09 13:45:53;;;;;;;1.67;0.70;;;;;;;;;;4957440;28;20185;-77
2023/10/09 13:48:20;;;;;;;2.00;0.60;;;;;;;;;;4967053;28;20117;-77
2023/10/09 13:50:47;;;;;;;1.90;0.80;;;;;;;;;;4977002;28;20116;-77
2023/10/09 13:53:14;;;;;;;2.05;0.90;;;;;;;;;;4961325;28;20045;-77
2023/10/09 13:55:43;;;;;;;1.77;0.93;;;;;;;;;;4976941;28;20046;-76
2023/10/09 13:58:13;;;;;;;3.55;0.90;;;;;;;;;;4983653;28;20088;-76
2023/10/09 14:00:42;;;;;;;1.98;0.60;;;;;;;;;;4981735;28;20054;-77
2023/10/09 14:03:13;;;;;;;2.20;0.82;;;;;;;;;;4974923;28;20030;-77
2023/10/09 14:05:51;;;;;;;2.90;0.80;;;;;;;;;;4981605;28;20038;-76
2023/10/09 14:08:16;;;;;;;2.17;1.02;;;;;;;;;;4979057;28;20120;-75
2023/10/09 14:10:42;;;;;;;3.30;0.82;;;;;;;;;;4959732;28;20058;-76
2023/10/09 14:13:12;;;;;;;2.50;1.20;;;;;;;;;;4976183;28;20121;-75
2023/10/09 14:15:41;;;;;;;3.72;1.10;;;;;;;;;;4977090;28;20284;-76
2023/10/09 14:18:08;;;;;;;2.53;1.00;;;;;;;;;;4978182;28;20366;-76
2023/10/09 14:20:34;;;;;;;3.55;1.77;;;;;;;;;;4978030;28;20031;-75
2023/10/09 14:23:06;;;;;;;3.90;1.52;;;;;;;;;;4975807;28;20524;-76
2023/10/09 14:25:32;;;;;;;3.78;1.35;;;;;;;;;;4982957;28;20509;-77
2023/10/09 14:27:57;;;;;;;3.20;1.83;;;;;;;;;;4975609;28;20034;-77
2023/10/09 14:30:30;;;;;;;4.28;1.90;;;;;;;;;;4984054;28;20030;-77
2023/10/09 14:33:01;;;;;;;4.28;1.73;;;;;;;;;;4978345;28;20116;-76
2023/10/09 14:35:30;;;;;;;6.63;2.05;;;;;;;;;;4979316;28;20478;-76
2023/10/09 14:37:55;;;;;;;3.55;1.67;;;;;;;;;;4983977;28;20030;-76
2023/10/09 14:40:29;;;;;;;3.30;1.50;;;;;;;;;;4978855;28;20046;-76
2023/10/09 14:42:56;;;;;;;4.00;1.48;;;;;;;;;;4983848;28;20057;-75
2023/10/09 14:45:25;;;;;;;5.88;2.10;;;;;;;;;;4979407;28;20097;-76
2023/10/09 14:47:52;;;;;;;3.47;1.60;;;;;;;;;;4991099;28;20093;-76
2023/10/09 14:50:21;;;;;;;4.70;1.70;;;;;;;;;;4984179;28;20089;-76
2023/10/09 14:52:48;;;;;;;7.63;1.80;;;;;;;;;;4970470;28;20026;-76
2023/10/09 14:55:13;;;;;;;5.13;1.90;;;;;;;;;;4985439;28;20034;-75
2023/10/09 14:57:38;;;;;;;6.57;1.77;;;;;;;;;;4988284;28;20089;-75
2023/10/09 15:00:13;;;;;;;4.65;1.50;;;;;;;;;;4971415;28;20292;-76
2023/10/09 15:02:38;;;;;;;5.05;1.65;;;;;;;;;;4978691;28;20073;-76
2023/10/09 15:05:04;;;;;;;4.77;1.87;;;;;;;;;;4961718;28;20065;-75
2023/10/09 15:07:29;;;;;;;3.45;1.73;;;;;;;;;;4975595;28;20329;-76
2023/10/09 15:09:55;;;;;;;3.47;1.80;;;;;;;;;;4976028;28;20501;-76
2023/10/09 15:12:22;;;;;;;4.07;2.00;;;;;;;;;;4974431;28;20278;-77
2023/10/09 15:14:48;;;;;;;4.50;1.63;;;;;;;;;;4972751;28;20044;-77
2023/10/09 15:17:15;;;;;;;4.95;2.13;;;;;;;;;;4959643;28;20793;-82
2023/10/09 15:19:41;;;;;;;5.88;1.98;;;;;;;;;;4976438;28;20061;-86
2023/10/09 15:22:09;;;;;;;4.00;2.07;;;;;;;;;;4971883;28;20537;-85
2023/10/09 15:24:36;;;;;;;4.70;2.05;;;;;;;;;;4963760;28;20352;-89
2023/10/09 15:27:01;;;;;;;5.15;2.30;;;;;;;;;;4980948;28;20040;-86
2023/10/09 15:29:33;;;;;;;5.17;2.17;;;;;;;;;;4957573;28;20033;-75
2023/10/09 15:32:04;;;;;;;5.07;2.20;;;;;;;;;;4975877;28;20328;-76
2023/10/09 15:34:31;;;;;;;4.95;2.10;;;;;;;;;;4974980;28;20046;-79
2023/10/09 15:36:56;;;;;;;4.20;2.10;;;;;;;;;;4974812;28;20540;-78
2023/10/09 15:39:23;;;;;;;4.45;2.25;;;;;;;;;;4977394;28;20034;-75
2023/10/09 15:41:49;;;;;;;6.03;2.45;;;;;;;;;;4974407;28;20125;-76
2023/10/09 15:44:14;;;;;;;6.45;2.38;;;;;;;;;;4973876;28;20049;-72
2023/10/09 15:46:39;;;;;;;6.38;2.50;;;;;;;;;;4973509;28;20157;-81
2023/10/09 15:49:07;;;;;;;34.22;21.60;;;;;;;;;;4981281;28;20085;-72
2023/10/09 15:51:32;;;;;;;86.82;56.22;;;;;;;;;;4976789;28;20129;-72
2023/10/09 15:53:58;;;;;;;47.67;29.10;;;;;;;;;;4970423;28;20054;-71
2023/10/09 15:56:23;;;;;;;32.28;19.75;;;;;;;;;;4992642;28;20041;-71
2023/10/09 15:58:48;;;;;;;29.63;16.07;;;;;;;;;;4975375;28;20517;-72
2023/10/09 16:01:14;;;;;;;18.67;12.23;;;;;;;;;;4963394;28;20337;-72
2023/10/09 16:03:42;;;;;;;19.08;9.95;;;;;;;;;;4975708;28;20045;-72
2023/10/09 16:06:11;;;;;;;15.13;7.97;;;;;;;;;;4964578;28;20063;-73
2023/10/09 16:08:38;;;;;;;14.40;6.80;;;;;;;;;;4984545;28;20058;-70
2023/10/09 16:11:03;;;;;;;9.13;5.18;;;;;;;;;;4990554;28;20046;-72
2023/10/09 16:13:28;;;;;;;7.00;4.40;;;;;;;;;;4971427;28;20039;-74
2023/10/09 16:15:56;;;;;;;6.90;3.80;;;;;;;;;;4967106;28;20206;-78
2023/10/09 16:18:24;;;;;;;9.15;4.25;;;;;;;;;;4965987;28;20845;-73
2023/10/09 16:20:49;;;;;;;9.03;3.60;;;;;;;;;;4979641;28;20055;-81
2023/10/09 16:23:15;;;;;;;8.33;3.50;;;;;;;;;;4965819;28;20381;-72
2023/10/09 16:25:40;;;;;;;7.05;3.03;;;;;;;;;;4967259;28;20286;-72
2023/10/09 16:28:06;;;;;;;7.63;3.10;;;;;;;;;;4977228;28;20046;-72
2023/10/09 16:30:31;;;;;;;9.18;3.33;;;;;;;;;;4978329;28;20057;-73
2023/10/09 16:32:56;;;;;;;10.10;3.95;;;;;;;;;;4966619;28;20042;-72
2023/10/09 16:35:22;;;;;;;7.72;3.90;;;;;;;;;;4967496;28;20092;-72
2023/10/09 16:37:49;;;;;;;10.38;3.80;;;;;;;;;;4980264;28;20053;-71
2023/10/09 16:40:14;;;;;;;7.65;3.13;;;;;;;;;;4980996;28;20505;-73
2023/10/09 16:42:42;;;;;;;7.90;3.28;;;;;;;;;;4979594;28;20081;-71
2023/10/09 16:45:15;;;;;;;9.25;3.47;;;;;;;;;;4973120;28;20046;-72
2023/10/09 16:47:41;;;;;;;6.90;3.13;;;;;;;;;;4950380;28;20093;-71
2023/10/09 16:50:09;;;;;;;7.57;3.20;;;;;;;;;;4966071;28;20125;-73
2023/10/09 16:52:37;;;;;;;5.68;3.00;;;;;;;;;;4973565;28;20055;-71
2023/10/09 16:55:08;;;;;;;4.82;2.95;;;;;;;;;;4970035;28;20042;-72
2023/10/09 16:57:34;;;;;;;8.43;3.00;;;;;;;;;;4972297;28;20082;-72
2023/10/09 16:59:59;;;;;;;5.30;2.90;;;;;;;;;;4970770;28;20038;-74
2023/10/09 17:02:27;;;;;;;8.43;3.20;;;;;;;;;;4959229;28;20144;-75
2023/10/09 17:04:54;;;;;;;7.55;2.90;;;;;;;;;;4955438;28;20358;-75
2023/10/09 17:07:23;;;;;;;5.95;2.95;;;;;;;;;;4951572;28;20141;-74
2023/10/09 17:09:48;;;;;;;7.35;3.17;;;;;;;;;;4971340;28;20112;-71
2023/10/09 17:12:17;;;;;;;7.55;3.00;;;;;;;;;;4954566;28;20477;-73
2023/10/09 17:14:42;;;;;;;5.70;2.85;;;;;;;;;;4953952;28;20034;-73
2023/10/09 17:17:08;;;;;;;5.15;2.60;;;;;;;;;;4954791;28;20058;-76
2023/10/09 17:19:37;;;;;;;5.70;2.50;;;;;;;;;;4952168;28;20042;-73
2023/10/09 17:22:10;;;;;;;6.38;2.72;;;;;;;;;;4942983;28;20038;-74
2023/10/09 17:24:35;;;;;;;5.35;2.60;;;;;;;;;;4970967;28;20050;-73
2023/10/09 17:27:01;;;;;;;5.32;2.97;;;;;;;;;;4972207;28;20045;-70
2023/10/09 17:29:27;;;;;;;4.25;2.20;;;;;;;;;;4973318;28;20042;-75
2023/10/09 17:31:52;;;;;;;5.65;2.22;;;;;;;;;;4972417;28;20109;-72
2023/10/09 17:34:17;;;;;;;5.40;2.78;;;;;;;;;;4971685;28;20440;-71
2023/10/09 17:36:43;;;;;;;5.32;2.33;;;;;;;;;;4954979;28;20102;-73
2023/10/09 17:39:08;;;;;;;5.05;2.53;;;;;;;;;;4955216;28;20030;-73
2023/10/09 17:41:35;;;;;;;4.67;2.60;;;;;;;;;;4969109;28;20545;-75
2023/10/09 17:44:01;;;;;;;5.72;2.80;;;;;;;;;;4953306;28;20315;-74
2023/10/09 17:46:27;;;;;;;5.47;2.83;;;;;;;;;;4936154;28;20846;-74
2023/10/09 17:48:52;;;;;;;6.22;2.80;;;;;;;;;;4952632;28;20126;-73
2023/10/09 17:51:20;;;;;;;5.97;2.57;;;;;;;;;;4938235;28;20520;-71
2023/10/09 17:53:46;;;;;;;5.95;2.63;;;;;;;;;;4953091;28;20298;-73
2023/10/09 17:56:11;;;;;;;6.15;2.40;;;;;;;;;;4952455;28;20698;-72
2023/10/09 17:58:36;;;;;;;6.45;2.35;;;;;;;;;;4954346;28;20051;-71
2023/10/09 18:01:06;;;;;;;4.68;2.38;;;;;;;;;;4953558;28;20690;-71
2023/10/09 18:03:31;;;;;;;5.00;2.78;;;;;;;;;;4971625;28;20061;-71
2023/10/09 18:05:57;;;;;;;4.25;2.50;;;;;;;;;;4951892;28;20027;-70
2023/10/09 18:08:25;;;;;;;5.35;2.63;;;;;;;;;;4956065;28;20573;-71
2023/10/09 18:10:53;;;;;;;6.63;2.42;;;;;;;;;;4971279;28;20022;-71
2023/10/09 18:13:19;;;;;;;5.05;2.50;;;;;;;;;;4971813;28;20027;-69
2023/10/09 18:15:44;;;;;;;4.65;2.50;;;;;;;;;;4969714;28;20136;-70
2023/10/09 18:18:12;;;;;;;4.05;2.33;;;;;;;;;;4953180;28;20513;-70
2023/10/09 18:20:40;;;;;;;6.47;3.03;;;;;;;;;;4954581;28;20680;-72
2023/10/09 18:23:06;;;;;;;5.72;2.95;;;;;;;;;;4958052;28;20023;-72
2023/10/09 18:25:31;;;;;;;4.63;2.50;;;;;;;;;;4957271;28;20030;-71
2023/10/09 18:27:56;;;;;;;6.28;2.88;;;;;;;;;;4955988;28;20023;-72
2023/10/09 18:30:26;;;;;;;4.57;2.63;;;;;;;;;;4956846;28;20548;-71
2023/10/09 18:32:51;;;;;;;5.78;2.63;;;;;;;;;;4956394;28;20910;-71
2023/10/09 18:35:16;;;;;;;6.05;2.45;;;;;;;;;;4956170;28;20743;-71
2023/10/09 18:37:41;;;;;;;5.90;3.00;;;;;;;;;;4956307;28;20786;-73
2023/10/09 18:40:12;;;;;;;5.30;2.70;;;;;;;;;;4957660;28;20282;-71
2023/10/09 18:42:37;;;;;;;4.95;2.85;;;;;;;;;;4976263;28;20420;-71
2023/10/09 18:45:07;;;;;;;6.10;2.70;;;;;;;;;;4957616;28;20181;-72
2023/10/09 18:47:37;;;;;;;6.47;3.22;;;;;;;;;;4974228;28;20035;-73